Time;durP1;ratioP1;P1;durP2;ratioP2;P2;SDS_P1;SDS_P2;PMS_P1;PMS_P2;Temp;Humidity;BMP_temperature;BMP_pressure;BME280_temperature;BME280_humidity;BME280_pressure;Samples;Min_cycle;Max_cycle;Signal;HPM_P1;HPM_P2
2023/05/16 00:00:17;;;;;;;;;14.00;12.00;23.10;42.50;;;;;;111690;1238;45898;-68
2023/05/16 00:03:05;;;;;;;;;14.00;11.75;23.20;42.60;;;;;;111728;1236;56921;-67
2023/05/16 00:05:32;;;;;;;;;12.75;11.75;23.10;42.70;;;;;;111937;1241;53216;-67
2023/05/16 00:07:59;;;;;;;;;14.00;12.00;23.10;42.50;;;;;;111522;1243;49611;-67
2023/05/16 00:10:25;;;;;;;;;13.25;12.25;23.10;42.50;;;;;;111710;1246;48843;-65
2023/05/16 00:12:52;;;;;;;;;13.00;11.75;23.20;42.60;;;;;;111607;1242;45110;-65
2023/05/16 00:15:19;;;;;;;;;12.67;11.67;23.10;42.50;;;;;;112047;1240;55930;-65
2023/05/16 00:17:46;;;;;;;;;12.00;10.00;23.10;42.70;;;;;;111768;1237;53278;-66
2023/05/16 00:20:16;;;;;;;;;13.75;12.75;23.10;42.70;;;;;;111603;1238;49613;-66
2023/05/16 00:22:43;;;;;;;;;13.25;12.50;23.10;42.70;;;;;;111709;1238;49183;-66
2023/05/16 00:25:10;;;;;;;;;11.75;10.75;23.10;42.50;;;;;;112055;1237;46068;-67
2023/05/16 00:27:37;;;;;;;;;13.00;11.75;23.10;42.50;;;;;;111446;1238;55239;-66
2023/05/16 00:30:04;;;;;;;;;11.67;10.67;23.10;42.70;;;;;;111545;1243;54908;-66
2023/05/16 00:32:31;;;;;;;;;13.25;12.00;23.10;42.50;;;;;;111749;1237;49280;-67
2023/05/16 00:34:58;;;;;;;;;14.00;12.00;23.10;42.50;;;;;;112070;1240;49111;-67
2023/05/16 00:37:24;;;;;;;;;15.00;11.00;23.10;42.50;;;;;;111705;1241;45641;-67
2023/05/16 00:39:51;;;;;;;;;11.75;10.75;23.10;42.50;;;;;;111704;1237;55662;-67
2023/05/16 00:42:19;;;;;;;;;10.75;9.75;23.10;42.50;;;;;;111622;1241;53373;-67
2023/05/16 00:44:47;;;;;;;;;14.33;12.67;23.10;42.70;;;;;;112024;1237;50354;-66
2023/05/16 00:47:14;;;;;;;;;13.75;12.75;23.00;42.60;;;;;;111744;1238;49320;-66
2023/05/16 00:49:41;;;;;;;;;15.00;13.00;23.10;42.60;;;;;;111748;1240;46230;-66
2023/05/16 00:52:08;;;;;;;;;13.00;12.00;23.10;42.60;;;;;;111645;1237;55182;-67
2023/05/16 00:54:35;;;;;;;;;13.00;11.00;23.00;42.50;;;;;;112023;1241;53735;-67
2023/05/16 00:57:04;;;;;;;;;12.67;11.33;23.00;42.80;;;;;;111664;1239;49017;-68
2023/05/16 00:59:31;;;;;;;;;13.75;12.75;23.00;42.60;;;;;;111716;1238;49733;-69
2023/05/16 01:01:58;;;;;;;;;13.67;12.67;23.00;42.50;;;;;;111767;1240;46031;-70
2023/05/16 01:04:25;;;;;;;;;11.00;10.00;23.00;42.60;;;;;;111904;1238;55451;-68
2023/05/16 01:06:54;;;;;;;;;12.00;11.00;23.00;42.60;;;;;;111794;1236;54512;-68
2023/05/16 01:09:21;;;;;;;;;13.25;12.25;23.00;42.60;;;;;;111718;1240;49048;-70
2023/05/16 01:12:12;;;;;;;;;13.00;12.00;23.00;42.60;;;;;;111601;1238;49084;-69
2023/05/16 01:15:09;;;;;;;;;13.00;12.00;23.00;42.60;;;;;;111995;1238;46359;-68
2023/05/16 01:18:04;;;;;;;;;12.75;11.75;22.90;42.60;;;;;;111635;1243;55597;-69
2023/05/16 01:20:37;;;;;;;;;14.50;13.50;23.00;42.60;;;;;;111618;1237;54170;-70
2023/05/16 01:23:10;;;;;;;;;15.33;13.67;23.00;42.60;;;;;;111718;1240;49057;-68
2023/05/16 01:26:15;;;;;;;;;13.00;12.00;23.00;42.60;;;;;;111946;1238;49870;-66
2023/05/16 01:28:46;;;;;;;;;14.75;13.75;23.00;42.70;;;;;;111711;1238;46722;-67
2023/05/16 01:31:13;;;;;;;;;13.00;12.00;23.00;43.10;;;;;;111607;1237;55885;-66
2023/05/16 01:33:40;;;;;;;;;16.00;12.00;23.00;42.60;;;;;;111674;1240;53653;-66
2023/05/16 01:36:19;;;;;;;;;15.00;12.50;23.00;42.70;;;;;;111937;1240;49821;-66
2023/05/16 01:39:00;;;;;;;;;15.75;12.75;23.00;42.70;;;;;;111755;1237;48915;-66
2023/05/16 01:41:37;;;;;;;;;12.50;10.25;23.00;42.60;;;;;;111529;1244;47771;-67
2023/05/16 01:44:25;;;;;;;;;17.00;12.00;23.00;42.70;;;;;;111558;1238;56718;-67
2023/05/16 01:46:57;;;;;;;;;14.75;13.50;23.00;42.70;;;;;;111358;1243;54422;-66
2023/05/16 01:49:53;;;;;;;;;13.75;11.25;23.00;42.70;;;;;;111623;1237;49673;-67
2023/05/16 01:52:41;;;;;;;;;14.00;12.67;23.00;42.60;;;;;;111596;1240;49034;-66
2023/05/16 01:55:31;;;;;;;;;13.00;11.75;23.00;42.70;;;;;;111895;1237;45805;-67
2023/05/16 01:57:58;;;;;;;;;14.25;11.25;23.00;42.60;;;;;;111529;1238;55304;-70
2023/05/16 02:00:25;;;;;;;;;12.75;11.25;23.00;42.60;;;;;;111659;1238;53767;-68
2023/05/16 02:02:52;;;;;;;;;13.00;11.00;23.00;42.50;;;;;;111534;1238;50208;-67
2023/05/16 02:05:19;;;;;;;;;12.50;11.50;23.00;42.60;;;;;;112016;1240;49988;-67
2023/05/16 02:07:47;;;;;;;;;12.00;11.00;23.00;42.60;;;;;;111748;1240;45340;-67
2023/05/16 02:10:14;;;;;;;;;13.00;12.00;23.00;42.60;;;;;;111732;1235;56751;-67
2023/05/16 02:12:41;;;;;;;;;12.75;11.75;22.90;42.60;;;;;;111584;1240;54207;-67
2023/05/16 02:15:08;;;;;;;;;12.75;11.75;23.00;42.70;;;;;;112054;1241;49346;-69
2023/05/16 02:17:35;;;;;;;;;13.00;12.00;22.90;42.60;;;;;;111765;1237;50011;-68
2023/05/16 02:20:05;;;;;;;;;14.75;11.75;22.90;42.60;;;;;;111772;1237;46367;-68
2023/05/16 02:22:33;;;;;;;;;11.50;10.25;22.90;42.60;;;;;;111770;1240;56708;-69
2023/05/16 02:25:00;;;;;;;;;16.33;14.00;22.90;42.60;;;;;;111901;1242;54001;-67
2023/05/16 02:27:28;;;;;;;;;14.75;12.75;22.90;42.70;;;;;;111756;1240;49705;-68
2023/05/16 02:29:55;;;;;;;;;13.00;12.00;22.90;42.90;;;;;;111627;1240;49734;-68
2023/05/16 02:32:22;;;;;;;;;15.00;14.00;22.90;42.60;;;;;;111733;1240;46611;-68
2023/05/16 02:34:49;;;;;;;;;14.00;11.00;22.90;42.70;;;;;;112029;1240;54960;-67
2023/05/16 02:37:16;;;;;;;;;14.75;13.00;22.90;42.70;;;;;;111747;1237;54299;-67
2023/05/16 02:39:43;;;;;;;;;15.25;13.00;22.90;42.70;;;;;;111657;1235;49841;-67
2023/05/16 02:42:10;;;;;;;;;14.00;11.00;22.90;42.70;;;;;;111714;1238;49111;-66
2023/05/16 02:44:37;;;;;;;;;13.00;10.00;22.90;42.80;;;;;;111986;1246;46079;-67
2023/05/16 02:47:04;;;;;;;;;13.75;12.00;22.90;42.70;;;;;;111692;1240;55521;-66
2023/05/16 02:49:31;;;;;;;;;12.75;11.75;22.90;42.70;;;;;;111721;1236;53893;-67
2023/05/16 02:51:58;;;;;;;;;17.00;12.50;22.90;42.90;;;;;;111651;1238;49357;-66
2023/05/16 02:54:25;;;;;;;;;11.67;10.67;22.90;42.70;;;;;;112008;1237;49025;-66
2023/05/16 02:56:52;;;;;;;;;13.50;12.50;22.90;42.80;;;;;;111738;1237;45109;-65
2023/05/16 02:59:19;;;;;;;;;13.75;12.75;22.80;42.70;;;;;;111725;1238;55722;-66
2023/05/16 03:01:46;;;;;;;;;13.25;11.00;22.80;42.70;;;;;;111743;1240;54580;-66
2023/05/16 03:04:13;;;;;;;;;12.00;11.00;22.80;43.20;;;;;;111799;1237;48911;-67
2023/05/16 03:06:40;;;;;;;;;12.00;11.00;22.80;42.70;;;;;;111906;1247;50306;-68
2023/05/16 03:09:06;;;;;;;;;15.50;14.00;22.80;42.70;;;;;;111586;1241;46087;-67
2023/05/16 03:11:33;;;;;;;;;15.00;12.75;22.80;42.70;;;;;;111775;1237;56454;-67
2023/05/16 03:14:00;;;;;;;;;16.00;13.33;22.80;42.70;;;;;;111743;1240;53810;-67
2023/05/16 03:16:27;;;;;;;;;12.75;11.00;22.80;42.80;;;;;;111859;1241;50527;-68
2023/05/16 03:18:55;;;;;;;;;12.00;9.33;22.80;42.70;;;;;;111759;1239;49562;-69
2023/05/16 03:21:21;;;;;;;;;13.25;12.00;22.80;42.50;;;;;;111660;1237;45737;-68
2023/05/16 03:23:49;;;;;;;;;10.00;9.00;22.80;42.70;;;;;;111746;1236;56694;-69
2023/05/16 03:26:16;;;;;;;;;12.75;10.25;22.80;42.70;;;;;;112049;1240;54663;-67
2023/05/16 03:28:42;;;;;;;;;14.75;13.50;22.80;42.80;;;;;;111567;1237;49788;-68
2023/05/16 03:31:09;;;;;;;;;13.25;12.00;22.80;42.70;;;;;;111678;1247;49695;-68
2023/05/16 03:33:36;;;;;;;;;14.50;13.00;22.80;42.70;;;;;;111707;1241;45752;-67
2023/05/16 03:36:04;;;;;;;;;13.00;12.00;22.80;42.80;;;;;;111862;1237;55982;-68
2023/05/16 03:38:31;;;;;;;;;13.00;12.00;22.80;42.80;;;;;;111676;1237;55069;-66
2023/05/16 03:40:58;;;;;;;;;16.25;12.00;22.80;42.70;;;;;;111800;1237;49287;-66
2023/05/16 03:43:25;;;;;;;;;12.00;10.00;22.80;42.70;;;;;;111673;1238;49593;-65
2023/05/16 03:45:52;;;;;;;;;12.00;10.25;22.80;43.00;;;;;;111915;1241;45721;-66
2023/05/16 03:48:19;;;;;;;;;12.25;11.25;22.80;43.00;;;;;;111676;1243;55573;-66
2023/05/16 03:50:46;;;;;;;;;11.75;10.50;22.80;42.80;;;;;;111625;1238;53391;-65
2023/05/16 03:53:13;;;;;;;;;15.00;12.00;22.80;42.70;;;;;;111780;1238;49970;-68
2023/05/16 03:55:40;;;;;;;;;12.75;12.00;22.80;42.80;;;;;;112017;1237;49732;-67
2023/05/16 03:58:07;;;;;;;;;13.00;12.00;22.80;42.80;;;;;;111754;1240;45141;-69
2023/05/16 04:00:35;;;;;;;;;16.50;15.25;22.80;42.80;;;;;;111640;1238;55650;-71
2023/05/16 04:03:03;;;;;;;;;20.33;17.00;22.80;44.90;;;;;;111803;1240;54815;-68
2023/05/16 04:05:30;;;;;;;;;18.75;17.50;22.80;46.20;;;;;;111917;1241;49829;-73
2023/05/16 04:07:57;;;;;;;;;21.00;19.00;22.80;46.90;;;;;;111672;1246;49529;-71
2023/05/16 04:10:24;;;;;;;;;22.00;19.75;22.90;47.80;;;;;;111745;1240;46567;-71
2023/05/16 04:12:51;;;;;;;;;19.00;18.00;22.90;47.80;;;;;;111790;1241;55035;-71
2023/05/16 04:15:18;;;;;;;;;18.75;17.50;22.90;47.70;;;;;;111949;1241;54944;-71
2023/05/16 04:17:45;;;;;;;;;21.00;20.00;22.90;47.80;;;;;;111620;1237;48996;-72
2023/05/16 04:20:12;;;;;;;;;19.67;18.00;22.90;47.80;;;;;;111746;1237;48888;-73
2023/05/16 04:22:39;;;;;;;;;23.00;17.33;23.00;47.60;;;;;;111720;1237;46025;-71
2023/05/16 04:25:07;;;;;;;;;20.00;19.00;23.00;47.40;;;;;;112037;1240;56488;-74
2023/05/16 04:27:34;;;;;;;;;21.00;17.33;23.00;47.20;;;;;;111693;1235;53708;-75
2023/05/16 04:30:01;;;;;;;;;23.50;19.75;23.00;46.90;;;;;;111689;1236;49612;-66
2023/05/16 04:32:29;;;;;;;;;21.33;20.33;23.00;46.70;;;;;;111635;1237;50479;-67
2023/05/16 04:34:55;;;;;;;;;21.75;18.00;23.10;46.60;;;;;;111899;1236;46887;-65
2023/05/16 04:37:22;;;;;;;;;27.50;18.75;23.00;46.60;;;;;;111712;1238;55240;-66
2023/05/16 04:39:50;;;;;;;;;23.00;19.00;23.10;46.80;;;;;;111760;1237;53638;-66
2023/05/16 04:42:17;;;;;;;;;26.75;22.00;23.10;46.60;;;;;;111712;1240;49391;-66
2023/05/16 04:44:44;;;;;;;;;26.67;22.33;23.10;46.20;;;;;;112003;1241;50206;-66
2023/05/16 04:47:11;;;;;;;;;23.25;21.00;23.10;46.10;;;;;;111641;1241;46044;-67
2023/05/16 04:49:38;;;;;;;;;23.75;20.25;23.10;46.00;;;;;;111744;1237;55257;-67
2023/05/16 04:52:07;;;;;;;;;24.00;18.75;23.10;46.00;;;;;;111719;1238;53301;-68
2023/05/16 04:54:34;;;;;;;;;27.25;21.00;23.10;45.80;;;;;;112043;1240;50207;-68
2023/05/16 04:57:01;;;;;;;;;28.00;24.00;23.10;45.70;;;;;;111695;1240;49702;-68
2023/05/16 04:59:28;;;;;;;;;21.50;20.00;23.10;45.60;;;;;;111761;1237;45580;-67
2023/05/16 05:01:55;;;;;;;;;22.75;20.75;23.10;45.50;;;;;;111744;1236;56041;-67
2023/05/16 05:04:21;;;;;;;;;18.25;16.00;23.10;45.40;;;;;;112030;1240;53956;-68
2023/05/16 05:06:49;;;;;;;;;22.75;19.75;23.10;45.40;;;;;;111781;1237;49817;-67
2023/05/16 05:09:16;;;;;;;;;22.50;21.25;23.10;45.30;;;;;;111654;1242;50440;-67
2023/05/16 05:11:43;;;;;;;;;18.00;17.00;23.10;45.70;;;;;;111777;1237;45219;-66
2023/05/16 05:14:10;;;;;;;;;20.50;18.25;23.10;45.20;;;;;;111639;1238;55865;-67
2023/05/16 05:16:37;;;;;;;;;22.00;19.00;23.00;45.00;;;;;;111615;1237;55162;-67
2023/05/16 05:19:04;;;;;;;;;19.50;18.50;23.00;45.00;;;;;;111686;1238;48962;-67
2023/05/16 05:21:31;;;;;;;;;21.75;17.25;23.00;45.00;;;;;;111672;1237;49806;-67
2023/05/16 05:23:58;;;;;;;;;21.75;18.25;23.00;45.00;;;;;;111778;1240;45649;-66
2023/05/16 05:26:25;;;;;;;;;19.67;18.33;23.00;44.80;;;;;;112016;1240;55324;-67
2023/05/16 05:28:52;;;;;;;;;21.25;17.25;23.00;44.90;;;;;;111531;1237;54575;-67
2023/05/16 05:31:19;;;;;;;;;19.00;16.00;23.00;44.80;;;;;;111612;1240;49888;-67
2023/05/16 05:33:45;;;;;;;;;23.50;18.00;23.00;44.80;;;;;;111653;1237;50100;-67
2023/05/16 05:36:12;;;;;;;;;22.75;19.25;22.90;44.90;;;;;;111733;1236;45872;-67
2023/05/16 05:38:39;;;;;;;;;18.25;17.25;22.90;44.80;;;;;;111764;1237;56454;-68
2023/05/16 05:41:06;;;;;;;;;22.25;17.75;22.90;44.70;;;;;;111685;1240;54767;-67
2023/05/16 05:43:34;;;;;;;;;17.75;16.75;22.90;44.70;;;;;;111644;1237;50509;-68
2023/05/16 05:46:01;;;;;;;;;20.75;17.75;22.90;44.70;;;;;;111898;1238;49501;-67
2023/05/16 05:48:28;;;;;;;;;18.75;15.75;22.90;44.70;;;;;;111700;1236;45571;-66
2023/05/16 05:50:55;;;;;;;;;23.25;19.50;22.90;44.80;;;;;;111805;1247;56984;-67
2023/05/16 05:53:22;;;;;;;;;20.75;19.00;22.90;44.50;;;;;;111659;1240;53403;-67
2023/05/16 05:55:49;;;;;;;;;20.50;16.75;22.90;44.50;;;;;;112032;1237;49992;-67
2023/05/16 05:58:17;;;;;;;;;20.33;16.67;22.90;44.50;;;;;;111755;1236;49606;-68
2023/05/16 06:00:44;;;;;;;;;17.00;15.33;22.90;44.50;;;;;;111591;1237;45582;-67
2023/05/16 06:03:11;;;;;;;;;18.50;17.50;22.90;44.50;;;;;;111731;1238;56038;-68
2023/05/16 06:05:37;;;;;;;;;23.75;16.00;22.90;44.50;;;;;;111653;1237;54959;-67
2023/05/16 06:08:04;;;;;;;;;19.67;18.00;22.90;44.50;;;;;;111767;1240;49978;-67
2023/05/16 06:10:31;;;;;;;;;19.75;17.75;22.90;44.40;;;;;;111767;1236;49840;-68
2023/05/16 06:12:58;;;;;;;;;21.75;18.75;22.90;44.40;;;;;;111740;1238;45564;-68
2023/05/16 06:15:25;;;;;;;;;20.00;19.00;22.90;44.40;;;;;;111910;1237;55263;-68
2023/05/16 06:17:52;;;;;;;;;21.50;19.00;22.90;44.60;;;;;;111519;1240;53508;-68
2023/05/16 06:20:19;;;;;;;;;19.67;16.67;22.90;44.40;;;;;;111785;1240;49217;-68
2023/05/16 06:22:46;;;;;;;;;17.00;16.00;22.90;44.30;;;;;;111740;1237;49891;-67
2023/05/16 06:25:13;;;;;;;;;16.67;14.67;22.90;44.40;;;;;;112041;1240;47266;-67
2023/05/16 06:27:40;;;;;;;;;20.00;16.25;22.90;44.40;;;;;;111660;1241;55584;-68
2023/05/16 06:30:08;;;;;;;;;23.00;19.00;22.90;44.30;;;;;;111583;1237;54468;-67
2023/05/16 06:32:35;;;;;;;;;20.25;17.50;22.90;44.30;;;;;;111456;1242;49480;-68
2023/05/16 06:35:02;;;;;;;;;23.33;19.00;22.90;44.30;;;;;;111774;1237;49788;-67
2023/05/16 06:37:28;;;;;;;;;22.00;18.33;22.90;44.40;;;;;;111346;1237;46082;-67
2023/05/16 06:39:55;;;;;;;;;20.25;17.25;22.80;44.30;;;;;;111583;1237;56540;-69
2023/05/16 06:42:22;;;;;;;;;23.67;20.67;22.80;44.30;;;;;;111652;1238;53549;-68
2023/05/16 06:44:49;;;;;;;;;22.00;17.00;22.90;44.40;;;;;;111883;1241;49611;-68
2023/05/16 06:47:16;;;;;;;;;18.75;16.50;22.80;44.40;;;;;;111757;1237;49561;-68
2023/05/16 06:49:43;;;;;;;;;17.75;16.75;22.80;44.30;;;;;;111675;1241;46316;-68
2023/05/16 06:52:10;;;;;;;;;20.25;19.25;22.80;44.20;;;;;;111747;1240;55442;-67
2023/05/16 06:54:37;;;;;;;;;19.00;17.00;22.80;44.20;;;;;;111996;1240;53715;-67
2023/05/16 06:57:05;;;;;;;;;15.50;13.75;22.80;44.30;;;;;;111316;1237;49746;-68
2023/05/16 06:59:33;;;;;;;;;16.00;15.00;22.80;44.30;;;;;;111580;1242;50051;-68
2023/05/16 07:02:00;;;;;;;;;18.75;17.75;22.80;44.20;;;;;;111698;1240;45277;-68
2023/05/16 07:04:27;;;;;;;;;18.67;17.67;22.80;44.20;;;;;;111970;1237;55434;-68
2023/05/16 07:06:54;;;;;;;;;21.75;19.25;22.90;44.30;;;;;;111692;1240;53523;-69
2023/05/16 07:09:21;;;;;;;;;21.75;19.25;22.90;44.30;;;;;;111728;1237;50134;-69
2023/05/16 07:11:48;;;;;;;;;18.00;16.00;22.90;44.30;;;;;;111661;1237;48993;-67
2023/05/16 07:14:15;;;;;;;;;20.00;17.50;22.80;44.20;;;;;;111545;1240;45991;-68
2023/05/16 07:16:42;;;;;;;;;20.25;17.75;22.80;44.40;;;;;;111360;1237;55526;-68
2023/05/16 07:19:09;;;;;;;;;19.00;18.00;22.80;44.20;;;;;;111712;1240;54360;-68
2023/05/16 07:21:36;;;;;;;;;21.50;18.00;22.80;44.20;;;;;;111778;1240;49025;-68
2023/05/16 07:24:03;;;;;;;;;21.25;19.00;22.80;44.20;;;;;;111745;1240;49814;-68
2023/05/16 07:26:30;;;;;;;;;18.50;15.75;22.80;44.30;;;;;;112015;1238;45980;-68
2023/05/16 07:28:57;;;;;;;;;23.00;20.00;22.80;44.20;;;;;;111612;1238;56927;-68
2023/05/16 07:31:24;;;;;;;;;20.00;17.33;22.80;44.20;;;;;;111640;1246;53790;-68
2023/05/16 07:33:52;;;;;;;;;19.75;17.00;22.80;44.20;;;;;;111736;1238;49034;-68
2023/05/16 07:36:20;;;;;;;;;21.00;20.00;22.80;44.40;;;;;;112044;1240;49321;-68
2023/05/16 07:38:47;;;;;;;;;21.50;18.25;22.80;44.40;;;;;;111686;1241;45238;-68
2023/05/16 07:41:13;;;;;;;;;16.75;15.50;22.80;44.10;;;;;;111637;1240;56460;-67
2023/05/16 07:43:40;;;;;;;;;21.00;16.33;22.80;44.10;;;;;;111674;1240;54145;-68
2023/05/16 07:46:07;;;;;;;;;19.00;16.00;22.80;44.10;;;;;;111906;1241;49879;-68
2023/05/16 07:48:34;;;;;;;;;20.50;18.00;22.80;44.40;;;;;;111709;1240;49547;-67
2023/05/16 07:51:01;;;;;;;;;16.75;14.25;22.80;44.10;;;;;;111682;1237;46121;-68
2023/05/16 07:53:28;;;;;;;;;17.00;15.75;22.80;44.30;;;;;;111700;1241;55805;-68
2023/05/16 07:55:55;;;;;;;;;22.67;18.33;22.80;44.10;;;;;;112002;1237;54068;-68
2023/05/16 07:58:22;;;;;;;;;22.00;18.25;22.80;44.20;;;;;;111639;1237;50608;-68
2023/05/16 08:00:49;;;;;;;;;20.00;18.00;22.80;44.10;;;;;;111559;1241;48781;-67
2023/05/16 08:03:16;;;;;;;;;21.25;18.75;22.80;44.30;;;;;;111703;1241;46427;-66
2023/05/16 08:05:43;;;;;;;;;17.00;16.25;22.80;44.00;;;;;;111648;1237;56125;-67
2023/05/16 08:08:10;;;;;;;;;17.67;17.00;22.80;44.10;;;;;;111651;1237;53247;-68
2023/05/16 08:10:37;;;;;;;;;18.25;17.25;22.80;44.30;;;;;;111636;1241;50546;-67
2023/05/16 08:13:04;;;;;;;;;18.25;17.25;22.80;44.10;;;;;;111571;1236;49824;-66
2023/05/16 08:15:31;;;;;;;;;17.00;16.00;22.80;44.20;;;;;;111521;1237;46285;-67
2023/05/16 08:17:58;;;;;;;;;20.75;16.75;22.80;44.20;;;;;;111580;1236;55461;-67
2023/05/16 08:20:25;;;;;;;;;19.67;17.33;22.80;44.20;;;;;;111664;1236;53712;-67
2023/05/16 08:22:53;;;;;;;;;20.67;18.33;22.80;44.00;;;;;;111798;1241;49595;-66
2023/05/16 08:25:20;;;;;;;;;19.25;17.00;22.80;44.20;;;;;;111557;1244;48632;-67
2023/05/16 08:27:48;;;;;;;;;24.50;15.75;22.80;44.20;;;;;;111701;1240;45786;-67
2023/05/16 08:30:15;;;;;;;;;19.75;18.75;22.80;44.40;;;;;;111521;1237;56111;-67
2023/05/16 08:32:42;;;;;;;;;18.00;16.00;22.80;44.20;;;;;;111739;1237;53335;-67
2023/05/16 08:35:10;;;;;;;;;20.00;18.25;22.80;44.20;;;;;;111912;1238;49540;-68
2023/05/16 08:37:37;;;;;;;;;21.00;18.00;22.80;44.40;;;;;;111751;1236;49990;-67
2023/05/16 08:40:07;;;;;;;;;20.67;19.00;22.80;44.20;;;;;;111755;1237;45405;-68
2023/05/16 08:42:34;;;;;;;;;21.67;16.67;22.80;44.10;;;;;;111792;1238;55978;-68
2023/05/16 08:45:02;;;;;;;;;16.33;15.00;22.80;44.10;;;;;;111955;1238;54980;-67
2023/05/16 08:47:30;;;;;;;;;18.50;16.00;22.80;44.10;;;;;;111777;1237;49835;-67
2023/05/16 08:49:58;;;;;;;;;19.50;18.50;22.80;44.00;;;;;;111416;1242;48796;-68
2023/05/16 08:52:30;;;;;;;;;22.00;18.75;22.90;44.10;;;;;;111503;1238;45768;-67
2023/05/16 08:55:00;;;;;;;;;18.00;17.00;22.80;44.00;;;;;;111316;1243;55910;-68
2023/05/16 08:57:27;;;;;;;;;18.75;16.00;22.80;44.00;;;;;;111546;1241;54462;-67
2023/05/16 08:59:56;;;;;;;;;20.50;19.50;22.80;44.30;;;;;;110934;1241;665289;-67
2023/05/16 09:02:23;;;;;;;;;22.00;18.75;22.80;44.00;;;;;;111688;1236;49073;-67
2023/05/16 09:04:50;;;;;;;;;22.00;15.00;22.80;44.10;;;;;;112121;1240;45773;-68
2023/05/16 09:07:17;;;;;;;;;17.00;15.33;22.80;44.10;;;;;;111425;1240;56027;-68
2023/05/16 09:09:44;;;;;;;;;19.75;17.50;22.80;44.00;;;;;;111624;1241;54765;-68
2023/05/16 09:12:11;;;;;;;;;20.00;16.25;22.80;44.00;;;;;;111655;1237;50662;-69
2023/05/16 09:14:38;;;;;;;;;19.00;17.00;22.80;44.00;;;;;;111980;1237;49928;-69
2023/05/16 09:17:06;;;;;;;;;20.50;17.75;22.80;44.00;;;;;;111759;1238;45118;-68
2023/05/16 09:19:38;;;;;;;;;19.50;17.50;22.80;44.30;;;;;;111714;1237;56607;-68
2023/05/16 09:22:09;;;;;;;;;17.00;16.00;22.90;44.10;;;;;;111553;1237;53801;-67
2023/05/16 09:24:44;;;;;;;;;20.50;18.50;22.90;44.10;;;;;;111873;1237;50620;-67
2023/05/16 09:27:13;;;;;;;;;19.00;16.50;22.90;44.10;;;;;;111740;1236;49913;-66
2023/05/16 09:29:45;;;;;;;;;21.50;17.25;22.90;44.10;;;;;;111493;1238;46028;-68
2023/05/16 09:32:14;;;;;;;;;18.00;17.00;22.90;44.10;;;;;;111502;1238;55003;-67
2023/05/16 09:34:47;;;;;;;;;17.67;16.67;22.90;44.10;;;;;;112049;1240;53502;-67
2023/05/16 09:37:18;;;;;;;;;21.50;19.00;22.90;44.30;;;;;;111518;1237;49050;-67
2023/05/16 09:39:54;;;;;;;;;17.25;16.00;22.90;44.10;;;;;;111648;1241;49563;-67
2023/05/16 09:42:21;;;;;;;;;15.25;14.25;22.90;44.10;;;;;;111623;1240;46344;-67
2023/05/16 09:44:50;;;;;;;;;19.00;18.25;22.90;44.00;;;;;;111976;1236;56349;-67
2023/05/16 09:47:18;;;;;;;;;20.75;17.75;22.90;44.00;;;;;;111750;1241;54321;-68
2023/05/16 09:49:47;;;;;;;;;19.00;18.00;22.90;44.00;;;;;;111701;1237;50485;-68
2023/05/16 09:52:14;;;;;;;;;20.75;16.25;23.00;44.00;;;;;;111700;1238;49017;-68
2023/05/16 09:54:41;;;;;;;;;21.25;17.25;22.90;44.00;;;;;;111966;1238;46640;-68
2023/05/16 09:57:08;;;;;;;;;18.00;15.25;22.90;44.00;;;;;;111755;1237;55805;-68
2023/05/16 09:59:36;;;;;;;;;19.00;16.50;23.00;44.30;;;;;;111705;1238;54395;-68
2023/05/16 10:02:05;;;;;;;;;18.00;16.33;23.00;44.00;;;;;;111731;1238;49647;-68
2023/05/16 10:04:34;;;;;;;;;17.00;15.67;23.00;44.10;;;;;;112028;1237;48828;-68
2023/05/16 10:07:03;;;;;;;;;18.75;17.75;23.00;44.10;;;;;;111528;1240;45929;-68
2023/05/16 10:09:33;;;;;;;;;17.00;16.00;23.00;44.10;;;;;;111603;1246;55248;-68
2023/05/16 10:12:05;;;;;;;;;19.50;14.25;23.00;44.10;;;;;;111634;1237;54774;-67
2023/05/16 10:14:35;;;;;;;;;17.25;15.00;23.00;44.10;;;;;;111954;1237;49152;-67
2023/05/16 10:17:04;;;;;;;;;16.75;14.25;23.00;44.10;;;;;;111724;1238;49789;-67
2023/05/16 10:19:32;;;;;;;;;17.25;16.25;23.10;44.20;;;;;;111744;1239;45555;-67
2023/05/16 10:22:04;;;;;;;;;18.00;16.00;23.10;44.10;;;;;;111236;1238;55053;-67
2023/05/16 10:24:54;;;;;;;;;21.00;16.00;23.10;44.10;;;;;;112006;1241;54192;-68
2023/05/16 10:27:21;;;;;;;;;20.00;15.75;23.10;44.10;;;;;;111645;1241;49218;-67
2023/05/16 10:29:49;;;;;;;;;21.00;19.00;23.10;44.10;;;;;;111287;1237;49282;-67
2023/05/16 10:32:17;;;;;;;;;17.67;15.00;23.10;44.00;;;;;;111735;1237;45110;-68
2023/05/16 10:34:45;;;;;;;;;16.67;14.00;23.10;44.20;;;;;;112062;1237;55537;-68
2023/05/16 10:37:12;;;;;;;;;17.00;16.00;23.10;44.10;;;;;;111429;1238;54057;-67
2023/05/16 10:39:39;;;;;;;;;14.25;13.00;23.20;44.20;;;;;;111530;1238;50013;-67
2023/05/16 10:42:07;;;;;;;;;21.25;15.00;23.20;44.20;;;;;;111578;1237;49851;-68
2023/05/16 10:44:34;;;;;;;;;17.00;16.00;23.20;44.20;;;;;;111843;1241;45103;-66
2023/05/16 10:47:03;;;;;;;;;17.75;16.75;23.20;44.30;;;;;;111493;1237;56716;-67
2023/05/16 10:49:30;;;;;;;;;17.33;15.00;23.20;44.20;;;;;;111298;1244;54613;-67
2023/05/16 10:52:11;;;;;;;;;21.00;16.75;23.30;44.30;;;;;;111681;1240;50813;-67
2023/05/16 10:54:44;;;;;;;;;18.00;16.75;23.30;44.30;;;;;;111862;1243;50464;-67
2023/05/16 10:57:16;;;;;;;;;21.25;15.75;23.30;44.50;;;;;;111423;1238;46749;-67
2023/05/16 10:59:45;;;;;;;;;17.00;15.75;23.30;44.30;;;;;;111664;1237;56142;-67
2023/05/16 11:02:27;;;;;;;;;18.00;16.75;23.30;44.40;;;;;;111635;1240;53550;-68
2023/05/16 11:04:58;;;;;;;;;15.00;14.00;23.40;44.30;;;;;;112084;1240;49646;-67
2023/05/16 11:07:31;;;;;;;;;18.00;15.25;23.40;44.30;;;;;;111765;1242;48755;-68
2023/05/16 11:10:10;;;;;;;;;21.00;17.00;23.40;44.40;;;;;;111780;1238;45561;-67
2023/05/16 11:12:45;;;;;;;;;19.00;16.00;23.40;44.70;;;;;;111686;1240;55223;-67
2023/05/16 11:15:22;;;;;;;;;18.00;15.50;23.40;44.40;;;;;;112079;1240;54745;-66
2023/05/16 11:17:49;;;;;;;;;18.33;15.33;23.50;44.40;;;;;;111778;1240;49711;-67
2023/05/16 11:20:30;;;;;;;;;16.00;13.50;23.50;44.60;;;;;;111746;1238;49564;-67
2023/05/16 11:23:15;;;;;;;;;16.00;15.00;23.50;44.30;;;;;;111594;1236;47040;-67
2023/05/16 11:25:48;;;;;;;;;15.00;14.00;23.50;44.40;;;;;;111715;1237;55036;-67
2023/05/16 11:28:16;;;;;;;;;19.50;15.75;23.50;44.40;;;;;;111638;1237;54018;-67
2023/05/16 11:30:49;;;;;;;;;16.00;14.50;23.50;44.40;;;;;;111452;1246;50439;-67
2023/05/16 11:33:17;;;;;;;;;18.00;15.50;23.50;44.40;;;;;;111721;1240;49629;-67
2023/05/16 11:36:08;;;;;;;;;20.25;19.25;23.50;44.40;;;;;;111590;1237;45524;-67
2023/05/16 11:38:35;;;;;;;;;17.00;16.00;23.50;44.40;;;;;;111472;1237;55865;-67
2023/05/16 11:41:06;;;;;;;;;18.00;17.00;23.50;44.60;;;;;;111715;1239;54834;-66
2023/05/16 11:43:43;;;;;;;;;16.25;15.00;23.60;44.50;;;;;;111692;1236;49454;-67
2023/05/16 11:46:12;;;;;;;;;18.50;17.50;23.60;44.60;;;;;;111870;1236;49330;-67
2023/05/16 11:48:39;;;;;;;;;14.75;13.50;23.60;44.60;;;;;;111468;1238;45445;-67
2023/05/16 11:51:08;;;;;;;;;18.00;15.00;23.60;44.70;;;;;;111752;1236;55962;-67
2023/05/16 11:53:36;;;;;;;;;15.75;14.75;23.60;44.60;;;;;;111719;1236;53685;-67
2023/05/16 11:56:05;;;;;;;;;16.50;13.50;23.60;44.80;;;;;;111402;1241;49773;-67
2023/05/16 11:58:32;;;;;;;;;17.67;16.67;23.60;44.70;;;;;;111551;1238;49599;-67
2023/05/16 12:01:03;;;;;;;;;17.00;15.25;23.60;44.60;;;;;;111713;1237;45379;-68
2023/05/16 12:03:34;;;;;;;;;20.50;17.00;23.60;44.70;;;;;;111672;1238;55834;-68
2023/05/16 12:06:01;;;;;;;;;18.50;16.00;23.50;44.60;;;;;;111902;1240;54434;-67
2023/05/16 12:08:29;;;;;;;;;19.00;17.00;23.60;44.70;;;;;;111552;1243;50299;-66
2023/05/16 12:10:56;;;;;;;;;17.75;15.75;23.60;44.70;;;;;;111499;1237;50474;-67
2023/05/16 12:13:24;;;;;;;;;17.67;16.67;23.60;44.70;;;;;;111509;1239;45219;-67
2023/05/16 12:15:54;;;;;;;;;18.75;16.00;23.60;44.80;;;;;;111663;1240;55975;-67
2023/05/16 12:18:22;;;;;;;;;16.00;14.67;23.60;44.80;;;;;;111498;1237;54061;-67
2023/05/16 12:20:49;;;;;;;;;15.75;14.75;23.60;44.80;;;;;;111750;1240;50859;-67
2023/05/16 12:23:16;;;;;;;;;19.25;15.75;23.60;44.90;;;;;;111713;1238;48647;-69
2023/05/16 12:25:48;;;;;;;;;14.50;13.50;23.60;44.90;;;;;;112032;1237;45953;-67